Time;durP1;ratioP1;P1;durP2;ratioP2;P2;SDS_P1;SDS_P2;PMS_P1;PMS_P2;Temp;Humidity;BMP_temperature;BMP_pressure;BME280_temperature;BME280_humidity;BME280_pressure;Samples;Min_cycle;Max_cycle;Signal;HPM_P1;HPM_P2
2021/06/28 00:00:10;;;;;;;15.33;10.30;;;;;;;17.32;100.00;101413.75;1881619;75;86474;-76
2021/06/28 00:05:34;;;;;;;12.63;9.00;;;;;;;17.33;100.00;101399.97;1949272;73;39471;-79
2021/06/28 00:11:01;;;;;;;12.13;9.63;;;;;;;17.32;100.00;101396.33;1912841;73;39756;-76
2021/06/28 00:16:26;;;;;;;15.43;9.93;;;;;;;17.33;100.00;101387.33;1858548;76;86342;-71
2021/06/28 00:21:50;;;;;;;12.07;8.60;;;;;;;17.22;100.00;101393.17;1945624;73;39531;-72
2021/06/28 00:27:15;;;;;;;11.67;8.70;;;;;;;17.26;100.00;101388.59;1877197;75;86470;-79
2021/06/28 00:32:39;;;;;;;8.20;6.87;;;;;;;17.34;100.00;101359.48;1946435;73;40254;-79
2021/06/28 00:38:06;;;;;;;8.33;6.47;;;;;;;17.12;100.00;101347.09;1930554;72;39552;-73
2021/06/28 00:43:31;;;;;;;7.23;5.70;;;;;;;17.13;100.00;101345.95;1942863;70;86500;-73
2021/06/28 00:48:55;;;;;;;7.93;5.77;;;;;;;17.14;100.00;101338.36;1944936;73;40080;-73
2021/06/28 00:54:26;;;;;;;6.53;5.63;;;;;;;17.10;100.00;101342.95;1785038;79;86135;-78
2021/06/28 00:59:53;;;;;;;7.30;5.50;;;;;;;17.06;100.00;101338.55;1902258;73;39624;-78
2021/06/28 01:05:20;;;;;;;6.03;5.40;;;;;;;17.04;100.00;101347.84;1837288;77;85469;-78
2021/06/28 01:10:45;;;;;;;6.50;5.53;;;;;;;17.05;100.00;101325.66;1946796;73;40291;-77
2021/06/28 01:16:10;;;;;;;7.57;5.60;;;;;;;17.03;100.00;101316.70;1881754;75;86165;-73
2021/06/28 01:21:36;;;;;;;6.03;5.30;;;;;;;17.08;100.00;101318.56;1949141;73;39689;-73
2021/06/28 01:27:02;;;;;;;6.33;5.23;;;;;;;17.07;100.00;101336.58;1891400;73;39505;-78
2021/06/28 01:32:27;;;;;;;5.13;4.63;;;;;;;17.07;100.00;101356.22;1777564;79;86179;-73
2021/06/28 01:37:51;;;;;;;5.37;4.77;;;;;;;17.09;100.00;101365.97;1918088;73;39683;-78
2021/06/28 01:43:16;;;;;;;5.43;4.93;;;;;;;17.05;100.00;101364.12;1891959;74;86198;-76
2021/06/28 01:48:40;;;;;;;5.47;4.87;;;;;;;17.00;100.00;101362.83;1948472;73;39585;-78
2021/06/28 01:54:04;;;;;;;5.53;4.77;;;;;;;17.04;100.00;101346.44;1943290;73;39583;-78
2021/06/28 01:59:30;;;;;;;6.13;5.13;;;;;;;17.08;100.00;101337.64;1838283;77;86165;-78
2021/06/28 02:04:56;;;;;;;5.30;4.80;;;;;;;17.05;100.00;101334.64;1944557;73;39410;-78
2021/06/28 02:10:20;;;;;;;5.97;5.37;;;;;;;17.11;100.00;101320.19;1837429;77;86475;-73
2021/06/28 02:15:45;;;;;;;6.40;5.40;;;;;;;17.15;100.00;101326.82;1919984;73;39500;-77
2021/06/28 02:21:09;;;;;;;6.07;5.53;;;;;;;17.17;100.00;101317.49;1876870;75;86644;-70
2021/06/28 02:26:34;;;;;;;11.17;6.00;;;;;;;17.18;100.00;101323.94;1925705;73;39456;-73
2021/06/28 02:32:01;;;;;;;6.87;6.17;;;;;;;17.16;100.00;101315.83;1927447;73;39493;-78
2021/06/28 02:37:25;;;;;;;6.80;5.97;;;;;;;17.24;100.00;101319.27;1943660;71;86404;-79
2021/06/28 02:42:49;;;;;;;7.20;6.50;;;;;;;17.19;100.00;101343.28;1945949;73;39573;-73
2021/06/28 02:48:12;;;;;;;8.30;6.43;;;;;;;17.21;100.00;101344.35;1877017;75;86624;-78
2021/06/28 02:53:37;;;;;;;8.07;7.27;;;;;;;17.22;100.00;101343.21;1949053;73;39493;-73
2021/06/28 02:59:02;;;;;;;9.00;8.00;;;;;;;17.25;100.00;101329.94;1943692;73;39503;-78
2021/06/28 03:04:27;;;;;;;9.17;8.07;;;;;;;17.23;100.00;101321.84;1777288;80;86780;-77
2021/06/28 03:09:51;;;;;;;10.57;8.30;;;;;;;17.23;100.00;101313.42;1945534;73;39472;-73
2021/06/28 03:15:18;;;;;;;8.10;7.37;;;;;;;17.25;100.00;101309.70;1837020;77;86339;-78
2021/06/28 03:20:42;;;;;;;8.87;7.67;;;;;;;17.18;100.00;101317.75;1903672;73;39507;-78
2021/06/28 03:26:07;;;;;;;8.27;7.40;;;;;;;17.19;100.00;101303.98;1877006;75;86031;-78
2021/06/28 03:31:37;;;;;;;7.30;6.57;;;;;;;17.26;100.00;101305.76;1785066;79;86814;-73
2021/06/28 03:37:01;;;;;;;7.73;6.77;;;;;;;17.22;100.00;101282.84;1943608;73;39638;-77
2021/06/28 03:42:25;;;;;;;6.30;5.77;;;;;;;17.23;100.00;101292.37;1787407;78;86179;-78
2021/06/28 03:47:51;;;;;;;5.50;5.00;;;;;;;17.24;100.00;101296.01;1918145;72;39711;-73
2021/06/28 03:53:16;;;;;;;8.23;5.00;;;;;;;17.09;100.00;101302.81;1832108;78;86228;-77
2021/06/28 03:58:41;;;;;;;5.23;4.73;;;;;;;17.19;100.00;101306.79;1922467;73;39492;-77
2021/06/28 04:04:06;;;;;;;5.10;4.60;;;;;;;17.19;100.00;101303.98;1910079;74;86284;-73
2021/06/28 04:09:31;;;;;;;5.47;4.60;;;;;;;17.18;100.00;101312.14;1751861;80;86461;-77
2021/06/28 04:14:55;;;;;;;7.07;5.40;;;;;;;17.21;100.00;101311.49;1931039;72;39492;-77
2021/06/28 04:20:22;;;;;;;6.57;5.67;;;;;;;17.26;100.00;101308.56;1837482;77;87013;-73
2021/06/28 04:25:47;;;;;;;7.47;6.67;;;;;;;17.19;100.00;101325.04;1900063;73;39518;-73
2021/06/28 04:31:16;;;;;;;9.70;7.87;;;;;;;17.26;100.00;101339.45;1882415;75;86336;-73
2021/06/28 04:36:40;;;;;;;11.17;9.53;;;;;;;17.33;100.00;101329.77;1948366;73;39659;-77
2021/06/28 04:42:05;;;;;;;12.50;9.83;;;;;;;17.35;100.00;101334.47;1909503;73;39582;-73
2021/06/28 04:50:17;;;;;;;15.40;11.83;;;;;;;17.35;100.00;101340.09;1924560;74;86863;-77
2021/06/28 04:52:47;;;;;;;14.30;10.90;;;;;;;17.29;100.00;101350.04;1849407;75;938761;-73
2021/06/28 04:55:18;;;;;;;14.97;11.47;;;;;;;17.33;100.00;101343.81;1863751;75;940676;-72
2021/06/28 04:57:49;;;;;;;14.50;11.00;;;;;;;17.29;100.00;101358.47;1851591;75;940740;-77
2021/06/28 05:00:23;;;;;;;13.93;11.00;;;;;;;17.30;100.00;101350.88;1863763;76;940749;-73
2021/06/28 05:02:54;;;;;;;14.73;10.97;;;;;;;17.32;100.00;101351.40;1851572;75;940846;-77
2021/06/28 05:05:24;;;;;;;15.63;10.67;;;;;;;17.36;100.00;101358.03;1863808;76;940733;-77
2021/06/28 05:07:56;;;;;;;16.27;11.53;;;;;;;17.35;100.00;101352.73;1851609;74;940791;-78
2021/06/28 05:10:26;;;;;;;14.73;11.93;;;;;;;17.37;100.00;101350.45;1863743;75;940737;-77
2021/06/28 05:15:50;;;;;;;17.63;12.83;;;;;;;17.47;100.00;101357.19;1918834;73;39429;-73
2021/06/28 05:21:15;;;;;;;17.60;12.90;;;;;;;17.39;100.00;101341.94;1882999;75;86516;-73
2021/06/28 05:26:42;;;;;;;15.53;11.87;;;;;;;17.36;100.00;101345.97;1948381;73;39616;-78
2021/06/28 05:32:06;;;;;;;17.60;12.27;;;;;;;17.45;100.00;101349.67;1904566;75;86529;-70
2021/06/28 05:37:31;;;;;;;17.63;12.73;;;;;;;17.41;100.00;101351.47;1764215;79;85511;-78
2021/06/28 05:45:44;;;;;;;16.07;11.67;;;;;;;17.39;100.00;101345.32;2001044;69;39550;-72
2021/06/28 05:51:09;;;;;;;15.90;11.23;;;;;;;17.44;100.00;101351.65;1876961;75;86704;-81
2021/06/28 05:56:33;;;;;;;17.97;12.20;;;;;;;17.45;100.00;101355.30;1838513;77;87190;-73
2021/06/28 06:02:01;;;;;;;19.83;11.53;;;;;;;17.41;100.00;101351.47;1944486;73;39444;-82
2021/06/28 06:07:28;;;;;;;20.43;12.83;;;;;;;17.47;100.00;101351.00;1847460;76;86404;-82
2021/06/28 06:12:51;;;;;;;17.90;11.97;;;;;;;17.50;100.00;101360.79;1934504;72;39578;-72
2021/06/28 06:18:19;;;;;;;17.03;12.20;;;;;;;17.53;100.00;101370.81;1837214;77;86112;-72
2021/06/28 06:23:46;;;;;;;21.43;13.27;;;;;;;17.51;100.00;101366.64;1925342;72;40077;-81
2021/06/28 06:29:29;;;;;;;20.30;13.60;;;;;;;17.56;100.00;101378.59;1869283;74;86484;-80
2021/06/28 06:35:08;;;;;;;16.60;12.73;;;;;;;17.50;100.00;101376.23;1915566;73;39678;-82
2021/06/28 06:40:38;;;;;;;18.50;12.17;;;;;;;17.51;100.00;101368.05;1847588;76;85541;-81
2021/06/28 06:46:09;;;;;;;18.93;13.97;;;;;;;17.57;100.00;101370.99;1889683;75;86494;-81
2021/06/28 06:51:32;;;;;;;23.17;15.47;;;;;;;17.57;100.00;101373.23;1882619;75;86550;-72
2021/06/28 06:57:00;;;;;;;20.73;14.47;;;;;;;17.55;100.00;101388.73;1944560;73;39521;-83
2021/06/28 07:02:25;;;;;;;26.20;16.03;;;;;;;17.55;100.00;101395.75;1951422;71;86666;-80
2021/06/28 07:07:49;;;;;;;24.10;15.10;;;;;;;17.47;100.00;101393.14;1945981;73;39625;-78
2021/06/28 07:13:14;;;;;;;20.97;14.27;;;;;;;17.58;100.00;101402.19;1877163;75;85455;-70
2021/06/28 07:18:39;;;;;;;17.57;12.67;;;;;;;17.58;100.00;101410.62;1923765;73;39772;-69
2021/06/28 07:24:04;;;;;;;21.47;12.63;;;;;;;17.51;100.00;101420.84;1943523;73;39613;-71
2021/06/28 07:29:29;;;;;;;21.27;13.10;;;;;;;17.49;100.00;101423.16;1838394;77;86028;-70
2021/06/28 07:34:56;;;;;;;19.20;12.47;;;;;;;17.52;100.00;101424.48;1945174;73;39627;-73
2021/06/28 07:40:22;;;;;;;22.53;12.67;;;;;;;17.63;100.00;101425.92;1869393;76;86438;-80
2021/06/28 07:48:34;;;;;;;20.10;13.33;;;;;;;17.62;100.00;101427.92;1963777;71;39636;-83
2021/06/28 07:51:05;;;;;;;20.30;14.00;;;;;;;17.64;100.00;101428.42;1868016;75;937570;-73
2021/06/28 07:53:35;;;;;;;20.30;13.53;;;;;;;17.62;100.00;101440.56;1845010;76;938073;-73
2021/06/28 07:56:17;;;;;;;19.57;14.30;;;;;;;17.60;100.00;101439.20;1823187;77;940778;-82
2021/06/28 07:58:50;;;;;;;25.15;13.60;;;;;;;17.64;100.00;101441.06;1823285;77;940903;-73
2021/06/28 08:01:21;;;;;;;19.87;13.80;;;;;;;17.61;100.00;101448.73;1835338;77;940690;-73
2021/06/28 08:03:51;;;;;;;20.92;13.43;;;;;;;17.64;100.00;101453.70;1818927;76;939676;-81
2021/06/28 08:06:23;;;;;;;20.37;12.60;;;;;;;17.60;100.00;101450.45;1833271;77;939785;-82
2021/06/28 08:08:53;;;;;;;16.27;11.73;;;;;;;17.62;100.00;101453.78;1821333;77;939646;-81
2021/06/28 08:11:25;;;;;;;14.27;11.07;;;;;;;17.65;100.00;101458.19;1833306;77;940885;-83
2021/06/28 08:13:56;;;;;;;17.17;11.03;;;;;;;17.65;100.00;101458.76;1821256;77;939661;-82
2021/06/28 08:16:26;;;;;;;16.40;11.37;;;;;;;17.72;100.00;101460.54;1833279;77;939744;-83
2021/06/28 08:18:56;;;;;;;17.17;12.03;;;;;;;17.74;100.00;101463.30;1821185;77;939615;-83
2021/06/28 08:21:26;;;;;;;17.03;12.00;;;;;;;17.72;100.00;101464.75;1833210;77;940985;-73
2021/06/28 08:23:56;;;;;;;16.10;11.30;;;;;;;17.79;100.00;101466.56;1821345;77;940664;-73
2021/06/28 08:26:26;;;;;;;17.93;11.67;;;;;;;17.80;100.00;101466.80;1833412;77;941043;-73
2021/06/28 08:28:56;;;;;;;14.60;10.30;;;;;;;17.69;100.00;101467.64;1821270;77;940658;-83
2021/06/28 08:31:28;;;;;;;15.83;10.63;;;;;;;17.65;100.00;101471.40;1833360;77;939139;-83
2021/06/28 08:33:58;;;;;;;15.35;10.10;;;;;;;17.74;100.00;101469.50;1821299;77;940675;-73
2021/06/28 08:36:28;;;;;;;15.20;10.80;;;;;;;17.84;100.00;101471.23;1833257;77;938772;-84
2021/06/28 08:39:03;;;;;;;17.77;10.45;;;;;;;17.94;100.00;101457.73;1821380;77;940704;-83
2021/06/28 08:41:37;;;;;;;18.63;10.73;;;;;;;17.98;100.00;101459.33;1833295;77;938789;-73
2021/06/28 08:44:10;;;;;;;17.67;11.93;;;;;;;17.99;100.00;101460.99;1833207;77;940844;-73
2021/06/28 08:49:37;;;;;;;16.60;12.10;;;;;;;18.23;100.00;101459.27;1930832;73;39602;-83
2021/06/28 08:55:01;;;;;;;15.07;12.23;;;;;;;18.19;100.00;101475.92;1910788;73;39514;-80
2021/06/28 09:00:26;;;;;;;17.73;13.13;;;;;;;18.15;100.00;101483.34;1777384;79;86871;-83
2021/06/28 09:06:03;;;;;;;16.30;11.67;;;;;;;18.11;100.00;101485.97;1919267;72;39487;-82
2021/06/28 09:11:29;;;;;;;16.67;11.90;;;;;;;18.11;100.00;101493.00;1799020;79;86530;-73
2021/06/28 09:16:55;;;;;;;18.53;13.10;;;;;;;18.16;100.00;101505.53;1944898;72;39469;-74
2021/06/28 09:22:30;;;;;;;17.47;12.87;;;;;;;18.17;100.00;101506.36;1832517;78;86169;-77
2021/06/28 09:27:54;;;;;;;22.83;15.10;;;;;;;18.18;100.00;101493.37;1914884;73;39443;-75
2021/06/28 09:33:22;;;;;;;21.43;14.50;;;;;;;18.21;100.00;101494.73;1837247;77;86351;-72
2021/06/28 09:38:47;;;;;;;27.43;17.40;;;;;;;18.28;100.00;101481.60;1920228;73;39526;-70
2021/06/28 09:44:23;;;;;;;27.23;16.10;;;;;;;18.26;100.00;101476.89;1882616;75;86621;-77
2021/06/28 09:50:04;;;;;;;29.30;18.50;;;;;;;18.29;100.00;101486.08;1940541;73;40073;-76
2021/06/28 09:55:33;;;;;;;28.03;19.67;;;;;;;18.30;100.00;101475.92;1869344;76;86456;-70
2021/06/28 10:01:25;;;;;;;33.90;22.73;;;;;;;18.33;100.00;101470.22;1869373;75;86393;-78
2021/06/28 10:06:56;;;;;;;33.93;22.80;;;;;;;18.29;100.00;101480.45;1945956;72;39457;-75
2021/06/28 10:12:21;;;;;;;34.73;22.77;;;;;;;18.36;100.00;101476.59;1877975;75;86433;-72
2021/06/28 10:17:46;;;;;;;32.20;21.00;;;;;;;18.35;100.00;101481.99;1946762;73;39478;-77
2021/06/28 10:23:12;;;;;;;30.27;20.77;;;;;;;18.30;100.00;101488.59;1877047;75;86515;-70
2021/06/28 10:28:39;;;;;;;30.67;20.50;;;;;;;18.31;100.00;101493.64;1949095;73;39700;-70
2021/06/28 10:34:04;;;;;;;30.10;20.30;;;;;;;18.42;100.00;101496.42;1943279;73;39759;-70
2021/06/28 10:39:32;;;;;;;30.57;20.87;;;;;;;18.42;100.00;101505.70;1833278;77;86157;-78
2021/06/28 10:44:58;;;;;;;33.00;21.83;;;;;;;18.53;100.00;101504.86;1944608;73;39543;-76
2021/06/28 10:50:21;;;;;;;28.67;21.50;;;;;;;18.69;100.00;101506.70;1882633;75;86930;-78
2021/06/28 10:55:47;;;;;;;29.83;21.47;;;;;;;18.75;100.00;101506.22;1946648;73;39483;-75
2021/06/28 11:01:37;;;;;;;31.10;21.57;;;;;;;18.65;100.00;101516.38;1837666;77;86632;-70
2021/06/28 11:07:25;;;;;;;33.17;21.93;;;;;;;18.79;100.00;101521.30;1917333;73;86983;-77
2021/06/28 11:12:55;;;;;;;32.33;22.10;;;;;;;18.86;100.00;101525.91;1916861;72;39543;-78
2021/06/28 11:18:32;;;;;;;30.57;21.47;;;;;;;18.98;100.00;101540.77;1837571;77;86338;-75
2021/06/28 11:24:00;;;;;;;30.20;20.47;;;;;;;18.84;100.00;101539.46;1944670;73;39667;-70
2021/06/28 11:29:50;;;;;;;29.20;20.07;;;;;;;18.80;100.00;101538.45;1773353;80;86349;-73
2021/06/28 11:38:24;;;;;;;32.53;20.40;;;;;;;18.76;100.00;101544.48;1915396;75;85720;-78
2021/06/28 11:40:57;;;;;;;31.85;21.15;;;;;;;18.64;100.00;101559.16;1819262;77;938834;-70
2021/06/28 11:43:43;;;;;;;31.90;21.77;;;;;;;18.63;100.00;101552.43;1831101;77;938944;-76
2021/06/28 11:49:12;;;;;;;33.03;20.93;;;;;;;18.73;100.00;101540.91;1882038;75;86747;-76
2021/06/28 11:54:38;;;;;;;35.67;23.03;;;;;;;18.85;100.00;101531.85;1938821;72;39732;-70
2021/06/28 12:00:09;;;;;;;35.40;21.93;;;;;;;19.07;100.00;101530.38;1925194;72;39788;-79
2021/06/28 12:05:34;;;;;;;40.77;25.60;;;;;;;19.26;100.00;101540.77;1868353;76;86379;-76
2021/06/28 12:11:02;;;;;;;44.13;25.30;;;;;;;19.51;100.00;101535.81;1927476;73;39483;-75
2021/06/28 12:16:30;;;;;;;39.70;25.37;;;;;;;19.56;100.00;101543.28;1867350;75;86194;-76
2021/06/28 12:21:56;;;;;;;41.60;25.73;;;;;;;19.69;100.00;101547.94;1945056;73;39505;-75
2021/06/28 12:27:21;;;;;;;38.37;25.30;;;;;;;19.87;100.00;101551.03;1876061;75;86608;-75
2021/06/28 12:32:50;;;;;;;38.07;25.00;;;;;;;20.00;100.00;101550.62;1918555;73;39415;-71
2021/06/28 12:38:16;;;;;;;37.23;24.60;;;;;;;20.03;100.00;101559.82;1867735;75;85357;-76
2021/06/28 12:43:41;;;;;;;36.97;23.87;;;;;;;19.82;100.00;101559.65;1948429;73;39409;-76
2021/06/28 12:49:07;;;;;;;38.43;24.80;;;;;;;19.95;100.00;101547.39;1910812;73;39471;-76
2021/06/28 12:54:32;;;;;;;32.90;23.27;;;;;;;20.23;100.00;101558.34;1942046;71;86085;-70
2021/06/28 12:59:59;;;;;;;31.60;21.47;;;;;;;20.05;100.00;101553.28;1932791;72;39614;-76
2021/06/28 13:05:50;;;;;;;30.03;21.60;;;;;;;20.23;100.00;101549.88;1899055;75;86184;-76
2021/06/28 13:11:19;;;;;;;29.03;20.87;;;;;;;20.39;100.00;101552.45;1837300;77;86593;-70
2021/06/28 13:16:52;;;;;;;28.90;20.73;;;;;;;20.38;100.00;101550.20;1946935;73;39497;-76
2021/06/28 13:22:18;;;;;;;26.17;19.40;;;;;;;20.33;100.00;101558.84;1867650;75;86513;-76
2021/06/28 13:27:47;;;;;;;24.63;18.30;;;;;;;20.35;100.00;101565.58;1946592;73;39828;-70
2021/06/28 13:33:19;;;;;;;20.93;17.03;;;;;;;20.84;100.00;101550.83;1837464;77;86512;-72
2021/06/28 13:38:53;;;;;;;18.60;15.57;;;;;;;20.89;100.00;101564.77;1947167;73;40175;-70
2021/06/28 13:44:17;;;;;;;21.90;17.70;;;;;;;20.96;100.00;101555.80;1840755;77;85998;-70
2021/06/28 13:49:40;;;;;;;20.90;17.13;;;;;;;20.83;100.00;101549.78;1948357;73;39590;-70
2021/06/28 13:55:09;;;;;;;19.57;16.53;;;;;;;21.07;100.00;101544.93;1909019;73;40304;-70
2021/06/28 14:00:46;;;;;;;17.00;15.17;;;;;;;21.29;100.00;101537.63;1946451;73;39720;-70
2021/06/28 14:06:12;;;;;;;18.83;15.87;;;;;;;21.68;100.00;101527.91;1877563;75;85727;-76
2021/06/28 14:11:38;;;;;;;19.95;16.15;;;;;;;21.67;100.00;101536.97;1948719;73;39542;-70
2021/06/28 14:17:03;;;;;;;14.23;12.43;;;;;;;21.95;100.00;101522.33;1931556;72;39448;-70
2021/06/28 14:22:27;;;;;;;15.43;13.43;;;;;;;22.17;100.00;101515.69;1764859;79;86201;-70
2021/06/28 14:27:54;;;;;;;14.15;12.70;;;;;;;22.30;100.00;101513.73;1915717;73;39609;-70
2021/06/28 14:33:20;;;;;;;15.40;13.78;;;;;;;22.24;100.00;101508.06;1837595;77;86658;-77
2021/06/28 14:38:45;;;;;;;15.93;13.35;;;;;;;22.00;100.00;101503.11;1935660;72;39514;-71
2021/06/28 14:44:09;;;;;;;16.05;14.00;;;;;;;21.85;100.00;101507.97;1891890;75;86821;-70
2021/06/28 14:49:32;;;;;;;15.05;13.53;;;;;;;21.78;100.00;101500.60;1829322;78;86459;-70
2021/06/28 14:54:59;;;;;;;14.98;12.78;;;;;;;21.58;100.00;101498.61;1901128;72;39518;-76
2021/06/28 15:00:26;;;;;;;16.32;13.45;;;;;;;21.39;100.00;101493.44;1850938;76;86074;-76
2021/06/28 15:05:49;;;;;;;14.75;13.05;;;;;;;21.26;100.00;101488.87;1946128;73;39443;-76
2021/06/28 15:11:14;;;;;;;15.83;13.80;;;;;;;21.48;100.00;101484.29;1877114;75;86627;-71
2021/06/28 15:16:39;;;;;;;15.00;12.20;;;;;;;21.50;100.00;101476.30;1948636;73;39463;-70
2021/06/28 15:22:03;;;;;;;14.75;11.95;;;;;;;21.75;100.00;101468.20;1931430;72;39730;-75
2021/06/28 15:27:29;;;;;;;13.83;11.93;;;;;;;21.98;100.00;101460.80;1942858;70;86752;-76
2021/06/28 15:32:53;;;;;;;15.23;12.58;;;;;;;22.20;100.00;101453.34;1945458;72;39550;-77
2021/06/28 15:38:20;;;;;;;13.98;11.28;;;;;;;22.35;100.00;101445.58;1837391;77;86446;-79
2021/06/28 15:43:46;;;;;;;14.38;11.57;;;;;;;22.52;100.00;101435.47;1919266;73;39718;-69
2021/06/28 15:49:09;;;;;;;13.65;10.90;;;;;;;22.25;100.00;101431.27;1891876;74;85556;-71
2021/06/28 15:54:33;;;;;;;11.68;9.90;;;;;;;21.98;100.00;101431.09;1838643;77;85743;-70
2021/06/28 15:59:57;;;;;;;11.22;10.13;;;;;;;22.14;100.00;101412.27;1914645;73;39477;-70
2021/06/28 16:05:22;;;;;;;12.40;10.32;;;;;;;22.22;100.00;101415.00;1837564;77;86245;-77
2021/06/28 16:10:47;;;;;;;12.20;9.83;;;;;;;22.34;100.00;101419.02;1919319;73;39861;-75
2021/06/28 16:16:11;;;;;;;11.93;9.80;;;;;;;22.43;100.00;101411.26;1877038;75;86782;-76
2021/06/28 16:21:36;;;;;;;13.75;10.40;;;;;;;22.22;100.00;101409.93;1949368;73;39577;-71
2021/06/28 16:27:03;;;;;;;13.43;10.28;;;;;;;21.55;100.00;101416.73;1912180;73;39507;-71
2021/06/28 16:32:28;;;;;;;12.23;10.20;;;;;;;21.43;100.00;101418.67;1838217;77;85969;-77
2021/06/28 16:37:53;;;;;;;13.60;11.33;;;;;;;21.39;100.00;101421.36;1931307;72;39759;-77
2021/06/28 16:43:20;;;;;;;13.43;11.48;;;;;;;21.38;100.00;101414.63;1867735;75;86840;-77
2021/06/28 16:45:49;;;;;;;15.25;10.80;;;;;;;;;;1871271;73;938836;-76
2021/06/28 16:51:13;;;;;;;13.07;10.57;;;;;;;21.27;100.00;101426.33;1882328;75;86191;-76
2021/06/28 16:56:37;;;;;;;13.20;9.47;;;;;;;21.27;100.00;101420.68;1906548;73;39829;-80
2021/06/28 17:02:05;;;;;;;13.27;10.00;;;;;;;21.14;100.00;101413.88;1884752;73;76706;-72
2021/06/28 17:07:28;;;;;;;12.60;9.63;;;;;;;21.02;100.00;101418.00;1838264;77;85814;-72
2021/06/28 17:12:53;;;;;;;10.90;8.77;;;;;;;20.89;100.00;101420.73;1934163;72;39552;-72
2021/06/28 17:18:18;;;;;;;11.03;8.53;;;;;;;21.19;100.00;101418.75;1837272;77;86357;-73
2021/06/28 17:23:44;;;;;;;9.60;8.30;;;;;;;21.41;100.00;101422.41;1947235;73;39872;-71
2021/06/28 17:29:11;;;;;;;8.75;7.28;;;;;;;21.33;100.00;101425.55;1891949;74;86792;-71
2021/06/28 17:34:37;;;;;;;8.30;7.37;;;;;;;21.43;100.00;101419.50;1949157;73;39814;-72
2021/06/28 17:40:01;;;;;;;8.68;7.60;;;;;;;21.45;100.00;101419.14;1912897;73;39908;-71
2021/06/28 17:45:26;;;;;;;9.67;7.87;;;;;;;21.02;100.00;101416.59;1961014;70;86432;-71
2021/06/28 17:50:56;;;;;;;8.87;7.90;;;;;;;20.81;100.00;101417.96;1944932;73;39774;-71
2021/06/28 17:56:21;;;;;;;10.93;8.20;;;;;;;20.59;100.00;101430.36;1837564;77;86973;-72
2021/06/28 18:01:46;;;;;;;10.50;8.37;;;;;;;20.42;100.00;101430.42;1935901;72;39531;-72
2021/06/28 18:07:13;;;;;;;8.97;7.87;;;;;;;20.34;100.00;101416.59;1892243;74;86193;-72
2021/06/28 18:12:38;;;;;;;12.27;8.10;;;;;;;20.32;100.00;101423.14;1938841;73;39643;-72
2021/06/28 18:18:04;;;;;;;11.50;8.97;;;;;;;20.38;100.00;101422.39;1937847;73;39741;-71
2021/06/28 18:23:29;;;;;;;12.07;9.50;;;;;;;20.33;100.00;101418.33;1838167;77;86429;-71
2021/06/28 18:28:53;;;;;;;13.23;10.13;;;;;;;20.27;100.00;101425.31;1945372;73;39873;-71
2021/06/28 18:34:20;;;;;;;16.67;11.30;;;;;;;20.12;100.00;101426.67;1832470;77;86144;-75
2021/06/28 18:39:44;;;;;;;15.10;10.87;;;;;;;20.05;100.00;101432.00;1947096;73;39496;-72
2021/06/28 18:45:11;;;;;;;13.63;10.93;;;;;;;19.85;100.00;101432.71;1877160;75;85749;-71
2021/06/28 18:50:34;;;;;;;16.30;10.90;;;;;;;19.81;100.00;101438.77;1908092;73;39692;-74
2021/06/28 18:56:25;;;;;;;13.77;9.97;;;;;;;19.96;100.00;101434.01;1893606;73;39582;-72
2021/06/28 19:01:24;;;;;;;13.80;10.23;;;;;;;19.94;100.00;101434.91;1772868;79;86364;-71
2021/06/28 19:06:48;;;;;;;15.40;9.97;;;;;;;19.93;100.00;101427.63;1922103;73;39624;-72
2021/06/28 19:12:14;;;;;;;13.70;10.27;;;;;;;20.00;100.00;101433.00;1876974;75;86422;-70
2021/06/28 19:17:38;;;;;;;16.13;11.03;;;;;;;20.16;100.00;101439.52;1948894;73;39612;-70
2021/06/28 19:23:08;;;;;;;14.90;11.33;;;;;;;19.89;100.00;101430.30;1942931;73;39482;-72
2021/06/28 19:28:34;;;;;;;13.50;11.23;;;;;;;19.82;100.00;101438.99;1867308;75;86246;-72
2021/06/28 19:33:59;;;;;;;16.57;12.37;;;;;;;19.64;100.00;101424.69;1913909;73;39626;-74
2021/06/28 19:39:23;;;;;;;16.23;11.77;;;;;;;19.35;100.00;101419.08;1861008;76;86491;-73
2021/06/28 19:44:47;;;;;;;15.80;11.77;;;;;;;19.22;100.00;101420.06;1946283;73;39577;-75
2021/06/28 19:50:13;;;;;;;16.73;12.53;;;;;;;19.10;100.00;101416.48;1882067;75;86758;-73
2021/06/28 19:55:37;;;;;;;17.53;12.90;;;;;;;18.97;100.00;101438.57;1924233;73;39554;-76
2021/06/28 20:01:05;;;;;;;17.63;12.20;;;;;;;18.96;100.00;101435.50;1900089;73;39678;-79
2021/06/28 20:06:30;;;;;;;19.00;12.70;;;;;;;18.85;100.00;101444.01;1858725;76;86617;-76
2021/06/28 20:11:54;;;;;;;15.57;11.57;;;;;;;18.90;100.00;101473.42;1914584;73;39533;-72
2021/06/28 20:17:18;;;;;;;12.97;10.17;;;;;;;18.78;100.00;101470.41;1837181;77;86493;-74
2021/06/28 20:23:03;;;;;;;9.77;8.50;;;;;;;18.59;100.00;101475.44;1968876;71;39607;-71
2021/06/28 20:28:27;;;;;;;9.93;8.50;;;;;;;18.59;100.00;101481.07;1825173;78;85356;-73
2021/06/28 20:33:53;;;;;;;9.80;8.50;;;;;;;18.55;100.00;101495.53;1945667;73;39691;-74
2021/06/28 20:39:18;;;;;;;9.67;8.20;;;;;;;18.65;100.00;101505.11;1837322;77;86215;-72
2021/06/28 20:47:29;;;;;;;9.50;7.47;;;;;;;18.52;100.00;101514.45;2002726;71;39797;-74
2021/06/28 20:52:53;;;;;;;9.67;7.97;;;;;;;18.46;100.00;101525.57;1896775;73;39637;-80
2021/06/28 20:58:16;;;;;;;9.87;8.33;;;;;;;18.35;100.00;101530.65;1868475;75;85543;-74
2021/06/28 21:03:40;;;;;;;11.10;8.70;;;;;;;18.49;100.00;101519.29;1938025;72;39614;-70
2021/06/28 21:09:05;;;;;;;9.83;8.37;;;;;;;18.49;100.00;101522.94;1943006;73;39733;-73
2021/06/28 21:14:29;;;;;;;11.00;8.53;;;;;;;18.41;100.00;101522.31;1838189;77;86699;-73
2021/06/28 21:19:54;;;;;;;10.57;9.27;;;;;;;18.38;100.00;101524.94;1930517;73;39888;-74
2021/06/28 21:25:18;;;;;;;12.60;10.10;;;;;;;18.39;100.00;101529.42;1837165;77;86459;-71
2021/06/28 21:30:44;;;;;;;15.73;12.10;;;;;;;18.35;100.00;101522.78;1902619;73;48952;-74
2021/06/28 21:36:08;;;;;;;15.40;11.57;;;;;;;18.31;100.00;101523.17;1877053;75;86822;-71
2021/06/28 21:41:33;;;;;;;16.90;11.27;;;;;;;18.23;100.00;101524.75;1838311;77;86735;-74
2021/06/28 21:46:57;;;;;;;19.43;14.40;;;;;;;18.22;100.00;101521.70;1957409;73;39511;-73
2021/06/28 21:52:23;;;;;;;17.80;14.40;;;;;;;18.14;100.00;101523.28;1837353;77;86152;-73
2021/06/28 21:57:48;;;;;;;18.83;15.10;;;;;;;18.08;100.00;101518.95;1946272;73;39538;-74
2021/06/28 22:03:14;;;;;;;15.30;13.23;;;;;;;17.95;100.00;101518.44;1877097;75;86820;-71
2021/06/28 22:08:38;;;;;;;19.17;15.10;;;;;;;17.93;100.00;101523.53;1948407;73;39622;-73
2021/06/28 22:14:03;;;;;;;19.67;15.03;;;;;;;17.95;100.00;101514.79;1943428;73;39751;-73
2021/06/28 22:19:27;;;;;;;18.20;14.80;;;;;;;17.82;100.00;101505.27;1764113;79;86052;-73
2021/06/28 22:24:51;;;;;;;16.93;13.40;;;;;;;17.77;100.00;101503.14;1917142;73;39449;-73
2021/06/28 22:30:19;;;;;;;20.27;15.37;;;;;;;17.78;100.00;101504.23;1836950;77;86181;-73
2021/06/28 22:35:44;;;;;;;22.43;16.43;;;;;;;17.72;100.00;101510.55;1920227;73;39499;-73
2021/06/28 22:41:09;;;;;;;19.03;16.13;;;;;;;17.67;100.00;101514.07;1881661;75;86291;-73
2021/06/28 22:46:33;;;;;;;21.67;15.97;;;;;;;17.65;100.00;101507.36;1860872;76;86570;-73
2021/06/28 22:51:58;;;;;;;23.90;16.80;;;;;;;17.69;100.00;101526.64;1914027;73;39549;-73
2021/06/28 22:57:22;;;;;;;22.37;16.90;;;;;;;17.61;100.00;101522.34;1837510;77;86173;-73
2021/06/28 23:02:47;;;;;;;19.80;15.60;;;;;;;17.61;100.00;101520.38;1934259;72;39817;-73
2021/06/28 23:08:12;;;;;;;24.20;17.10;;;;;;;17.59;100.00;101524.63;1876834;75;86813;-71